sensor_id;sensor_type;location;lat;lon;timestamp;pressure;altitude;pressure_sealevel;temperature;humidity
49645;BME280;36494;50.730;-1.932;2023-03-01T00:01:30;102654.75;;;4.79;100.00
49645;BME280;36494;50.730;-1.932;2023-03-01T00:03:55;102655.18;;;4.69;100.00
49645;BME280;36494;50.730;-1.932;2023-03-01T00:06:21;102654.37;;;4.62;100.00
49645;BME280;36494;50.730;-1.932;2023-03-01T00:08:46;102657.22;;;4.58;100.00
49645;BME280;36494;50.730;-1.932;2023-03-01T00:11:13;102661.28;;;4.61;100.00
49645;BME280;36494;50.730;-1.932;2023-03-01T00:13:36;102660.95;;;4.64;100.00
49645;BME280;36494;50.730;-1.932;2023-03-01T00:16:03;102657.87;;;4.63;100.00
49645;BME280;36494;50.730;-1.932;2023-03-01T00:18:28;102661.16;;;4.60;100.00
49645;BME280;36494;50.730;-1.932;2023-03-01T00:20:56;102663.74;;;4.54;100.00
49645;BME280;36494;50.730;-1.932;2023-03-01T00:23:20;102661.32;;;4.47;100.00
49645;BME280;36494;50.730;-1.932;2023-03-01T00:25:44;102664.15;;;4.52;100.00
49645;BME280;36494;50.730;-1.932;2023-03-01T00:28:10;102663.98;;;4.58;100.00
49645;BME280;36494;50.730;-1.932;2023-03-01T00:30:35;102663.14;;;4.48;100.00
49645;BME280;36494;50.730;-1.932;2023-03-01T00:33:00;102665.72;;;4.48;100.00
49645;BME280;36494;50.730;-1.932;2023-03-01T00:35:25;102662.04;;;4.49;100.00
49645;BME280;36494;50.730;-1.932;2023-03-01T00:37:51;102660.44;;;4.49;100.00
49645;BME280;36494;50.730;-1.932;2023-03-01T00:40:16;102664.73;;;4.50;100.00
49645;BME280;36494;50.730;-1.932;2023-03-01T00:42:41;102660.50;;;4.44;100.00
49645;BME280;36494;50.730;-1.932;2023-03-01T00:45:07;102660.62;;;4.45;100.00
49645;BME280;36494;50.730;-1.932;2023-03-01T00:47:32;102654.33;;;4.41;100.00
49645;BME280;36494;50.730;-1.932;2023-03-01T00:49:57;102653.44;;;4.35;100.00
49645;BME280;36494;50.730;-1.932;2023-03-01T00:52:23;102652.43;;;4.37;100.00
49645;BME280;36494;50.730;-1.932;2023-03-01T00:54:48;102643.99;;;4.37;100.00
49645;BME280;36494;50.730;-1.932;2023-03-01T00:57:13;102646.48;;;4.29;100.00
49645;BME280;36494;50.730;-1.932;2023-03-01T00:59:38;102647.38;;;4.29;100.00
49645;BME280;36494;50.730;-1.932;2023-03-01T01:02:04;102647.55;;;4.21;100.00
49645;BME280;36494;50.730;-1.932;2023-03-01T01:04:29;102652.87;;;4.17;100.00
49645;BME280;36494;50.730;-1.932;2023-03-01T01:06:54;102654.56;;;4.29;100.00
49645;BME280;36494;50.730;-1.932;2023-03-01T01:09:20;102647.94;;;4.18;100.00
49645;BME280;36494;50.730;-1.932;2023-03-01T01:11:47;102649.85;;;4.19;100.00
49645;BME280;36494;50.730;-1.932;2023-03-01T01:14:11;102652.14;;;4.18;100.00
49645;BME280;36494;50.730;-1.932;2023-03-01T01:16:36;102653.01;;;4.21;100.00
49645;BME280;36494;50.730;-1.932;2023-03-01T01:19:02;102654.58;;;4.28;100.00
49645;BME280;36494;50.730;-1.932;2023-03-01T01:21:28;102651.18;;;4.18;100.00
49645;BME280;36494;50.730;-1.932;2023-03-01T01:23:55;102649.57;;;4.16;100.00
49645;BME280;36494;50.730;-1.932;2023-03-01T01:26:21;102645.24;;;4.20;100.00
49645;BME280;36494;50.730;-1.932;2023-03-01T01:28:45;102643.13;;;4.21;100.00
49645;BME280;36494;50.730;-1.932;2023-03-01T01:31:10;102638.69;;;4.15;100.00
49645;BME280;36494;50.730;-1.932;2023-03-01T01:33:35;102640.26;;;4.14;100.00
49645;BME280;36494;50.730;-1.932;2023-03-01T01:36:00;102640.62;;;4.14;100.00
49645;BME280;36494;50.730;-1.932;2023-03-01T01:38:26;102641.53;;;4.13;100.00
49645;BME280;36494;50.730;-1.932;2023-03-01T01:40:52;102642.08;;;4.14;100.00
49645;BME280;36494;50.730;-1.932;2023-03-01T01:43:20;102641.60;;;4.14;100.00
49645;BME280;36494;50.730;-1.932;2023-03-01T01:45:43;102645.33;;;4.13;100.00
49645;BME280;36494;50.730;-1.932;2023-03-01T01:48:12;102643.68;;;4.12;100.00
49645;BME280;36494;50.730;-1.932;2023-03-01T01:50:35;102639.55;;;4.14;100.00
49645;BME280;36494;50.730;-1.932;2023-03-01T01:52:59;102639.75;;;4.11;100.00
49645;BME280;36494;50.730;-1.932;2023-03-01T01:55:26;102640.02;;;4.12;100.00
49645;BME280;36494;50.730;-1.932;2023-03-01T01:57:52;102640.24;;;4.13;100.00
49645;BME280;36494;50.730;-1.932;2023-03-01T02:00:18;102636.14;;;4.14;100.00
49645;BME280;36494;50.730;-1.932;2023-03-01T02:02:40;102635.30;;;4.13;100.00
49645;BME280;36494;50.730;-1.932;2023-03-01T02:05:11;102633.70;;;4.13;100.00
49645;BME280;36494;50.730;-1.932;2023-03-01T02:07:32;102633.74;;;4.06;100.00
49645;BME280;36494;50.730;-1.932;2023-03-01T02:09:57;102632.01;;;4.07;100.00
49645;BME280;36494;50.730;-1.932;2023-03-01T02:12:24;102633.75;;;4.05;100.00
49645;BME280;36494;50.730;-1.932;2023-03-01T02:14:48;102630.58;;;4.03;100.00
49645;BME280;36494;50.730;-1.932;2023-03-01T02:17:15;102629.32;;;3.99;100.00
49645;BME280;36494;50.730;-1.932;2023-03-01T02:19:49;102626.61;;;3.98;100.00
49645;BME280;36494;50.730;-1.932;2023-03-01T02:22:12;102624.56;;;3.97;100.00
49645;BME280;36494;50.730;-1.932;2023-03-01T02:24:38;102622.10;;;3.97;100.00
49645;BME280;36494;50.730;-1.932;2023-03-01T02:26:56;102621.49;;;3.89;100.00
49645;BME280;36494;50.730;-1.932;2023-03-01T02:29:20;102623.03;;;3.83;100.00
49645;BME280;36494;50.730;-1.932;2023-03-01T02:31:46;102625.94;;;3.87;100.00
49645;BME280;36494;50.730;-1.932;2023-03-01T02:34:13;102619.64;;;3.87;100.00
49645;BME280;36494;50.730;-1.932;2023-03-01T02:36:39;102614.75;;;3.85;100.00
49645;BME280;36494;50.730;-1.932;2023-03-01T02:39:05;102613.39;;;3.82;100.00
49645;BME280;36494;50.730;-1.932;2023-03-01T02:41:32;102612.26;;;3.83;100.00
49645;BME280;36494;50.730;-1.932;2023-03-01T02:43:55;102610.36;;;3.84;100.00
49645;BME280;36494;50.730;-1.932;2023-03-01T02:46:22;102606.38;;;3.84;100.00
49645;BME280;36494;50.730;-1.932;2023-03-01T02:48:48;102604.04;;;3.75;100.00
49645;BME280;36494;50.730;-1.932;2023-03-01T02:51:27;102602.01;;;3.76;100.00
49645;BME280;36494;50.730;-1.932;2023-03-01T02:53:44;102601.02;;;3.77;100.00
49645;BME280;36494;50.730;-1.932;2023-03-01T02:56:02;102598.39;;;3.76;100.00
49645;BME280;36494;50.730;-1.932;2023-03-01T02:58:27;102597.97;;;3.76;100.00
49645;BME280;36494;50.730;-1.932;2023-03-01T03:00:53;102599.90;;;3.74;100.00
49645;BME280;36494;50.730;-1.932;2023-03-01T03:03:20;102597.67;;;3.74;100.00
49645;BME280;36494;50.730;-1.932;2023-03-01T03:05:43;102597.38;;;3.72;100.00
49645;BME280;36494;50.730;-1.932;2023-03-01T03:08:09;102595.53;;;3.71;100.00
49645;BME280;36494;50.730;-1.932;2023-03-01T03:10:37;102592.41;;;3.70;100.00
49645;BME280;36494;50.730;-1.932;2023-03-01T03:13:02;102592.85;;;3.71;100.00
49645;BME280;36494;50.730;-1.932;2023-03-01T03:15:27;102591.48;;;3.62;100.00
49645;BME280;36494;50.730;-1.932;2023-03-01T03:17:52;102590.50;;;3.62;100.00
49645;BME280;36494;50.730;-1.932;2023-03-01T03:20:18;102587.55;;;3.65;100.00
49645;BME280;36494;50.730;-1.932;2023-03-01T03:22:42;102586.89;;;3.65;100.00
49645;BME280;36494;50.730;-1.932;2023-03-01T03:25:08;102588.29;;;3.65;100.00
49645;BME280;36494;50.730;-1.932;2023-03-01T03:27:33;102585.84;;;3.63;100.00
49645;BME280;36494;50.730;-1.932;2023-03-01T03:29:58;102584.04;;;3.62;100.00
49645;BME280;36494;50.730;-1.932;2023-03-01T03:32:24;102580.88;;;3.62;100.00
49645;BME280;36494;50.730;-1.932;2023-03-01T03:34:49;102581.46;;;3.62;100.00
49645;BME280;36494;50.730;-1.932;2023-03-01T03:37:15;102578.29;;;3.64;100.00
49645;BME280;36494;50.730;-1.932;2023-03-01T03:39:40;102574.57;;;3.61;100.00
49645;BME280;36494;50.730;-1.932;2023-03-01T03:42:06;102564.50;;;3.61;100.00
49645;BME280;36494;50.730;-1.932;2023-03-01T03:44:31;102560.68;;;3.60;100.00
49645;BME280;36494;50.730;-1.932;2023-03-01T03:46:57;102561.20;;;3.56;100.00
49645;BME280;36494;50.730;-1.932;2023-03-01T03:49:23;102558.72;;;3.57;100.00
49645;BME280;36494;50.730;-1.932;2023-03-01T03:51:48;102558.68;;;3.57;100.00
49645;BME280;36494;50.730;-1.932;2023-03-01T03:54:14;102560.35;;;3.61;100.00
49645;BME280;36494;50.730;-1.932;2023-03-01T03:56:40;102558.04;;;3.60;100.00
49645;BME280;36494;50.730;-1.932;2023-03-01T03:59:05;102562.29;;;3.60;100.00
49645;BME280;36494;50.730;-1.932;2023-03-01T04:01:31;102562.42;;;3.58;100.00
49645;BME280;36494;50.730;-1.932;2023-03-01T04:03:56;102562.12;;;3.58;100.00
49645;BME280;36494;50.730;-1.932;2023-03-01T04:06:21;102560.84;;;3.58;100.00
49645;BME280;36494;50.730;-1.932;2023-03-01T04:08:47;102557.35;;;3.60;100.00
49645;BME280;36494;50.730;-1.932;2023-03-01T04:11:13;102554.90;;;3.60;100.00
49645;BME280;36494;50.730;-1.932;2023-03-01T04:13:39;102552.67;;;3.60;100.00
49645;BME280;36494;50.730;-1.932;2023-03-01T04:16:05;102547.84;;;3.60;100.00
49645;BME280;36494;50.730;-1.932;2023-03-01T04:18:30;102547.57;;;3.58;100.00
49645;BME280;36494;50.730;-1.932;2023-03-01T04:20:55;102545.94;;;3.59;100.00
49645;BME280;36494;50.730;-1.932;2023-03-01T04:23:21;102536.85;;;3.58;100.00
49645;BME280;36494;50.730;-1.932;2023-03-01T04:25:48;102537.19;;;3.57;100.00
49645;BME280;36494;50.730;-1.932;2023-03-01T04:28:12;102541.49;;;3.57;100.00
49645;BME280;36494;50.730;-1.932;2023-03-01T04:30:38;102543.64;;;3.56;100.00
49645;BME280;36494;50.730;-1.932;2023-03-01T04:33:04;102543.83;;;3.52;100.00
49645;BME280;36494;50.730;-1.932;2023-03-01T04:35:29;102543.47;;;3.54;100.00
49645;BME280;36494;50.730;-1.932;2023-03-01T04:37:54;102545.11;;;3.56;100.00
49645;BME280;36494;50.730;-1.932;2023-03-01T04:40:20;102543.04;;;3.57;100.00
49645;BME280;36494;50.730;-1.932;2023-03-01T04:42:45;102541.12;;;3.59;100.00
49645;BME280;36494;50.730;-1.932;2023-03-01T04:45:10;102540.28;;;3.59;100.00
49645;BME280;36494;50.730;-1.932;2023-03-01T04:47:36;102539.69;;;3.60;100.00
49645;BME280;36494;50.730;-1.932;2023-03-01T04:50:02;102540.26;;;3.59;100.00
49645;BME280;36494;50.730;-1.932;2023-03-01T04:52:27;102534.12;;;3.59;100.00
49645;BME280;36494;50.730;-1.932;2023-03-01T04:54:52;102536.31;;;3.62;100.00
49645;BME280;36494;50.730;-1.932;2023-03-01T04:57:18;102534.66;;;3.62;100.00
49645;BME280;36494;50.730;-1.932;2023-03-01T04:59:43;102537.58;;;3.62;100.00
49645;BME280;36494;50.730;-1.932;2023-03-01T05:02:09;102532.59;;;3.62;100.00
49645;BME280;36494;50.730;-1.932;2023-03-01T05:04:34;102528.75;;;3.63;100.00
49645;BME280;36494;50.730;-1.932;2023-03-01T05:07:00;102530.12;;;3.66;100.00
49645;BME280;36494;50.730;-1.932;2023-03-01T05:09:25;102528.27;;;3.65;100.00
49645;BME280;36494;50.730;-1.932;2023-03-01T05:11:50;102529.01;;;3.66;100.00
49645;BME280;36494;50.730;-1.932;2023-03-01T05:14:16;102526.06;;;3.66;100.00
49645;BME280;36494;50.730;-1.932;2023-03-01T05:16:41;102528.93;;;3.68;100.00
49645;BME280;36494;50.730;-1.932;2023-03-01T05:19:07;102524.46;;;3.67;100.00
49645;BME280;36494;50.730;-1.932;2023-03-01T05:21:32;102524.10;;;3.69;100.00
49645;BME280;36494;50.730;-1.932;2023-03-01T05:23:58;102521.35;;;3.69;100.00
49645;BME280;36494;50.730;-1.932;2023-03-01T05:26:23;102521.83;;;3.69;100.00
49645;BME280;36494;50.730;-1.932;2023-03-01T05:28:49;102519.32;;;3.70;100.00
49645;BME280;36494;50.730;-1.932;2023-03-01T05:31:15;102519.52;;;3.72;100.00
49645;BME280;36494;50.730;-1.932;2023-03-01T05:33:41;102517.61;;;3.71;100.00
49645;BME280;36494;50.730;-1.932;2023-03-01T05:36:07;102514.36;;;3.71;100.00
49645;BME280;36494;50.730;-1.932;2023-03-01T05:38:32;102516.49;;;3.73;100.00
49645;BME280;36494;50.730;-1.932;2023-03-01T05:40:57;102516.64;;;3.72;100.00
49645;BME280;36494;50.730;-1.932;2023-03-01T05:43:22;102520.51;;;3.75;100.00
49645;BME280;36494;50.730;-1.932;2023-03-01T05:45:48;102513.92;;;3.74;100.00
49645;BME280;36494;50.730;-1.932;2023-03-01T05:48:13;102507.24;;;3.74;100.00
49645;BME280;36494;50.730;-1.932;2023-03-01T05:50:40;102502.43;;;3.71;100.00
49645;BME280;36494;50.730;-1.932;2023-03-01T05:53:06;102499.56;;;3.72;100.00
49645;BME280;36494;50.730;-1.932;2023-03-01T05:55:30;102501.73;;;3.73;100.00
49645;BME280;36494;50.730;-1.932;2023-03-01T05:57:58;102502.89;;;3.71;100.00
49645;BME280;36494;50.730;-1.932;2023-03-01T06:00:21;102502.50;;;3.74;100.00
49645;BME280;36494;50.730;-1.932;2023-03-01T06:02:46;102500.40;;;3.72;100.00
49645;BME280;36494;50.730;-1.932;2023-03-01T06:05:13;102496.61;;;3.72;100.00
49645;BME280;36494;50.730;-1.932;2023-03-01T06:07:37;102494.38;;;3.73;100.00
49645;BME280;36494;50.730;-1.932;2023-03-01T06:10:04;102493.45;;;3.74;100.00
49645;BME280;36494;50.730;-1.932;2023-03-01T06:12:30;102498.85;;;3.76;100.00
49645;BME280;36494;50.730;-1.932;2023-03-01T06:14:54;102501.06;;;3.77;100.00
49645;BME280;36494;50.730;-1.932;2023-03-01T06:17:19;102505.09;;;3.77;100.00
49645;BME280;36494;50.730;-1.932;2023-03-01T06:19:46;102503.13;;;3.77;100.00
49645;BME280;36494;50.730;-1.932;2023-03-01T06:22:10;102506.21;;;3.78;100.00
49645;BME280;36494;50.730;-1.932;2023-03-01T06:24:36;102511.51;;;3.78;100.00
49645;BME280;36494;50.730;-1.932;2023-03-01T06:27:01;102511.25;;;3.78;100.00
49645;BME280;36494;50.730;-1.932;2023-03-01T06:29:27;102510.15;;;3.79;100.00
49645;BME280;36494;50.730;-1.932;2023-03-01T06:31:52;102508.43;;;3.80;100.00
49645;BME280;36494;50.730;-1.932;2023-03-01T06:34:17;102507.83;;;3.81;100.00
49645;BME280;36494;50.730;-1.932;2023-03-01T06:36:43;102513.48;;;3.80;100.00
49645;BME280;36494;50.730;-1.932;2023-03-01T06:39:09;102509.85;;;3.80;100.00
49645;BME280;36494;50.730;-1.932;2023-03-01T06:41:34;102504.34;;;3.82;100.00
49645;BME280;36494;50.730;-1.932;2023-03-01T06:43:59;102503.35;;;3.83;100.00
49645;BME280;36494;50.730;-1.932;2023-03-01T06:46:24;102505.85;;;3.83;100.00
49645;BME280;36494;50.730;-1.932;2023-03-01T06:48:50;102507.14;;;3.83;100.00
49645;BME280;36494;50.730;-1.932;2023-03-01T06:51:15;102507.63;;;3.82;100.00
49645;BME280;36494;50.730;-1.932;2023-03-01T06:53:41;102509.19;;;3.84;100.00
49645;BME280;36494;50.730;-1.932;2023-03-01T06:56:07;102510.85;;;3.85;100.00
49645;BME280;36494;50.730;-1.932;2023-03-01T06:58:33;102512.20;;;3.87;100.00
49645;BME280;36494;50.730;-1.932;2023-03-01T07:00:58;102516.94;;;3.88;100.00
49645;BME280;36494;50.730;-1.932;2023-03-01T07:03:23;102520.99;;;3.89;100.00
49645;BME280;36494;50.730;-1.932;2023-03-01T07:05:49;102522.00;;;3.91;100.00
49645;BME280;36494;50.730;-1.932;2023-03-01T07:08:14;102520.15;;;3.92;100.00
49645;BME280;36494;50.730;-1.932;2023-03-01T07:10:39;102521.04;;;3.93;100.00
49645;BME280;36494;50.730;-1.932;2023-03-01T07:13:05;102519.02;;;3.95;100.00
49645;BME280;36494;50.730;-1.932;2023-03-01T07:15:30;102522.11;;;3.95;100.00
49645;BME280;36494;50.730;-1.932;2023-03-01T07:17:56;102524.36;;;3.98;100.00
49645;BME280;36494;50.730;-1.932;2023-03-01T07:20:21;102527.89;;;4.00;100.00
49645;BME280;36494;50.730;-1.932;2023-03-01T07:22:46;102522.61;;;4.02;100.00
49645;BME280;36494;50.730;-1.932;2023-03-01T07:25:11;102530.45;;;4.06;100.00
49645;BME280;36494;50.730;-1.932;2023-03-01T07:27:37;102529.33;;;4.07;100.00
49645;BME280;36494;50.730;-1.932;2023-03-01T07:30:03;102530.40;;;4.06;100.00
49645;BME280;36494;50.730;-1.932;2023-03-01T07:32:28;102530.00;;;4.09;100.00
49645;BME280;36494;50.730;-1.932;2023-03-01T07:34:53;102532.28;;;4.10;100.00
49645;BME280;36494;50.730;-1.932;2023-03-01T07:37:19;102529.86;;;4.14;100.00
49645;BME280;36494;50.730;-1.932;2023-03-01T07:39:44;102535.59;;;4.15;100.00
49645;BME280;36494;50.730;-1.932;2023-03-01T07:42:10;102532.68;;;4.17;100.00
49645;BME280;36494;50.730;-1.932;2023-03-01T07:44:36;102538.47;;;4.19;100.00
49645;BME280;36494;50.730;-1.932;2023-03-01T07:47:02;102536.89;;;4.20;100.00
49645;BME280;36494;50.730;-1.932;2023-03-01T07:49:26;102534.86;;;4.22;100.00
49645;BME280;36494;50.730;-1.932;2023-03-01T07:51:52;102540.52;;;4.25;100.00
49645;BME280;36494;50.730;-1.932;2023-03-01T07:54:17;102538.03;;;4.23;100.00
49645;BME280;36494;50.730;-1.932;2023-03-01T07:56:42;102544.91;;;4.28;100.00
49645;BME280;36494;50.730;-1.932;2023-03-01T07:59:08;102542.60;;;4.33;100.00
49645;BME280;36494;50.730;-1.932;2023-03-01T08:01:33;102537.92;;;4.33;100.00
49645;BME280;36494;50.730;-1.932;2023-03-01T08:03:59;102534.50;;;4.37;100.00
49645;BME280;36494;50.730;-1.932;2023-03-01T08:06:24;102529.12;;;4.38;100.00
49645;BME280;36494;50.730;-1.932;2023-03-01T08:08:50;102527.17;;;4.41;100.00
49645;BME280;36494;50.730;-1.932;2023-03-01T08:11:15;102528.54;;;4.43;100.00
49645;BME280;36494;50.730;-1.932;2023-03-01T08:13:41;102525.26;;;4.43;100.00
49645;BME280;36494;50.730;-1.932;2023-03-01T08:16:08;102523.00;;;4.43;100.00
49645;BME280;36494;50.730;-1.932;2023-03-01T08:18:31;102530.18;;;4.46;100.00
49645;BME280;36494;50.730;-1.932;2023-03-01T08:21:01;102531.57;;;4.47;100.00
49645;BME280;36494;50.730;-1.932;2023-03-01T08:23:22;102523.79;;;4.53;100.00
49645;BME280;36494;50.730;-1.932;2023-03-01T08:25:48;102521.10;;;4.57;100.00
49645;BME280;36494;50.730;-1.932;2023-03-01T08:28:13;102524.33;;;4.59;100.00
49645;BME280;36494;50.730;-1.932;2023-03-01T08:30:38;102523.19;;;4.56;100.00
49645;BME280;36494;50.730;-1.932;2023-03-01T08:33:04;102527.70;;;4.62;100.00
49645;BME280;36494;50.730;-1.932;2023-03-01T08:35:30;102524.33;;;4.68;100.00
49645;BME280;36494;50.730;-1.932;2023-03-01T08:37:55;102525.17;;;4.73;100.00
49645;BME280;36494;50.730;-1.932;2023-03-01T08:40:20;102520.22;;;4.75;100.00
49645;BME280;36494;50.730;-1.932;2023-03-01T08:42:46;102521.02;;;4.76;100.00
49645;BME280;36494;50.730;-1.932;2023-03-01T08:45:12;102526.71;;;4.81;100.00
49645;BME280;36494;50.730;-1.932;2023-03-01T08:47:37;102526.91;;;4.86;100.00
49645;BME280;36494;50.730;-1.932;2023-03-01T08:50:03;102527.24;;;4.88;100.00
49645;BME280;36494;50.730;-1.932;2023-03-01T08:52:28;102526.34;;;4.89;100.00
49645;BME280;36494;50.730;-1.932;2023-03-01T08:54:53;102525.89;;;4.89;100.00
49645;BME280;36494;50.730;-1.932;2023-03-01T08:57:19;102522.79;;;4.91;100.00
49645;BME280;36494;50.730;-1.932;2023-03-01T08:59:44;102522.88;;;4.96;100.00
49645;BME280;36494;50.730;-1.932;2023-03-01T09:02:13;102521.98;;;4.96;100.00
49645;BME280;36494;50.730;-1.932;2023-03-01T09:04:35;102519.70;;;4.94;100.00
49645;BME280;36494;50.730;-1.932;2023-03-01T09:07:00;102520.48;;;4.95;100.00
49645;BME280;36494;50.730;-1.932;2023-03-01T09:09:26;102521.80;;;4.97;100.00
49645;BME280;36494;50.730;-1.932;2023-03-01T09:11:51;102521.55;;;4.95;100.00
49645;BME280;36494;50.730;-1.932;2023-03-01T09:14:17;102521.58;;;4.93;100.00
49645;BME280;36494;50.730;-1.932;2023-03-01T09:16:42;102523.86;;;4.95;100.00
49645;BME280;36494;50.730;-1.932;2023-03-01T09:19:08;102523.37;;;4.92;100.00
49645;BME280;36494;50.730;-1.932;2023-03-01T09:21:33;102518.64;;;4.93;100.00
49645;BME280;36494;50.730;-1.932;2023-03-01T09:23:59;102519.32;;;4.96;100.00
49645;BME280;36494;50.730;-1.932;2023-03-01T09:26:24;102520.79;;;4.97;100.00
49645;BME280;36494;50.730;-1.932;2023-03-01T09:28:52;102523.97;;;5.01;100.00
49645;BME280;36494;50.730;-1.932;2023-03-01T09:31:17;102523.63;;;5.04;100.00
49645;BME280;36494;50.730;-1.932;2023-03-01T09:33:41;102516.86;;;5.05;100.00
49645;BME280;36494;50.730;-1.932;2023-03-01T09:36:08;102512.27;;;5.06;100.00
49645;BME280;36494;50.730;-1.932;2023-03-01T09:38:31;102510.96;;;5.09;100.00
49645;BME280;36494;50.730;-1.932;2023-03-01T09:40:57;102509.63;;;5.11;100.00
49645;BME280;36494;50.730;-1.932;2023-03-01T09:43:26;102507.88;;;5.11;100.00
49645;BME280;36494;50.730;-1.932;2023-03-01T09:45:49;102505.46;;;5.15;100.00
49645;BME280;36494;50.730;-1.932;2023-03-01T09:48:16;102499.20;;;5.18;100.00
49645;BME280;36494;50.730;-1.932;2023-03-01T09:50:40;102497.25;;;5.18;100.00
49645;BME280;36494;50.730;-1.932;2023-03-01T09:53:06;102494.41;;;5.19;100.00
49645;BME280;36494;50.730;-1.932;2023-03-01T09:55:32;102483.84;;;5.25;100.00
49645;BME280;36494;50.730;-1.932;2023-03-01T09:57:57;102484.01;;;5.27;100.00
49645;BME280;36494;50.730;-1.932;2023-03-01T10:00:30;102474.67;;;5.29;100.00
49645;BME280;36494;50.730;-1.932;2023-03-01T10:02:49;102476.22;;;5.28;100.00
49645;BME280;36494;50.730;-1.932;2023-03-01T10:05:21;102474.00;;;5.33;100.00
49645;BME280;36494;50.730;-1.932;2023-03-01T10:07:43;102473.69;;;5.40;100.00
49645;BME280;36494;50.730;-1.932;2023-03-01T10:10:05;102471.96;;;5.43;100.00
49645;BME280;36494;50.730;-1.932;2023-03-01T10:12:33;102471.26;;;5.44;100.00
49645;BME280;36494;50.730;-1.932;2023-03-01T10:14:57;102468.05;;;5.46;100.00
49645;BME280;36494;50.730;-1.932;2023-03-01T10:17:25;102470.78;;;5.49;100.00
49645;BME280;36494;50.730;-1.932;2023-03-01T10:19:45;102464.40;;;5.54;100.00
49645;BME280;36494;50.730;-1.932;2023-03-01T10:22:15;102461.33;;;5.58;100.00
49645;BME280;36494;50.730;-1.932;2023-03-01T10:24:35;102459.28;;;5.58;100.00
49645;BME280;36494;50.730;-1.932;2023-03-01T10:27:04;102459.16;;;5.58;100.00
49645;BME280;36494;50.730;-1.932;2023-03-01T10:29:31;102458.78;;;5.62;100.00
49645;BME280;36494;50.730;-1.932;2023-03-01T10:31:52;102463.10;;;5.63;100.00
49645;BME280;36494;50.730;-1.932;2023-03-01T10:34:18;102456.06;;;5.57;100.00
49645;BME280;36494;50.730;-1.932;2023-03-01T10:36:43;102453.51;;;5.64;100.00
49645;BME280;36494;50.730;-1.932;2023-03-01T10:39:13;102452.49;;;5.65;100.00
49645;BME280;36494;50.730;-1.932;2023-03-01T10:41:32;102449.29;;;5.63;100.00
49645;BME280;36494;50.730;-1.932;2023-03-01T10:43:59;102452.30;;;5.68;100.00
49645;BME280;36494;50.730;-1.932;2023-03-01T10:46:26;102445.95;;;5.64;100.00
49645;BME280;36494;50.730;-1.932;2023-03-01T10:51:17;102444.03;;;5.75;100.00
49645;BME280;36494;50.730;-1.932;2023-03-01T10:53:42;102445.57;;;5.79;100.00
49645;BME280;36494;50.730;-1.932;2023-03-01T10:56:09;102448.09;;;5.78;100.00
49645;BME280;36494;50.730;-1.932;2023-03-01T10:58:33;102446.88;;;5.77;100.00
49645;BME280;36494;50.730;-1.932;2023-03-01T11:00:59;102443.67;;;5.81;100.00
49645;BME280;36494;50.730;-1.932;2023-03-01T11:03:24;102441.22;;;5.77;100.00
49645;BME280;36494;50.730;-1.932;2023-03-01T11:05:58;102433.67;;;5.77;100.00
49645;BME280;36494;50.730;-1.932;2023-03-01T11:08:14;102433.13;;;5.86;100.00
49645;BME280;36494;50.730;-1.932;2023-03-01T11:10:39;102427.08;;;5.84;100.00
49645;BME280;36494;50.730;-1.932;2023-03-01T11:13:08;102420.98;;;5.91;100.00
49645;BME280;36494;50.730;-1.932;2023-03-01T11:15:30;102419.58;;;5.98;100.00
49645;BME280;36494;50.730;-1.932;2023-03-01T11:17:56;102416.89;;;5.98;100.00
49645;BME280;36494;50.730;-1.932;2023-03-01T11:20:26;102414.99;;;6.04;100.00
49645;BME280;36494;50.730;-1.932;2023-03-01T11:22:50;102412.82;;;6.06;100.00
49645;BME280;36494;50.730;-1.932;2023-03-01T11:25:13;102409.93;;;6.07;100.00
49645;BME280;36494;50.730;-1.932;2023-03-01T11:27:41;102404.83;;;6.11;100.00
49645;BME280;36494;50.730;-1.932;2023-03-01T11:30:07;102406.69;;;6.11;100.00
49645;BME280;36494;50.730;-1.932;2023-03-01T11:32:35;102402.76;;;6.14;100.00
49645;BME280;36494;50.730;-1.932;2023-03-01T11:34:57;102396.84;;;6.17;100.00
49645;BME280;36494;50.730;-1.932;2023-03-01T11:37:26;102398.15;;;6.18;100.00
49645;BME280;36494;50.730;-1.932;2023-03-01T11:39:53;102395.72;;;6.20;100.00
49645;BME280;36494;50.730;-1.932;2023-03-01T11:42:14;102389.11;;;6.25;100.00
49645;BME280;36494;50.730;-1.932;2023-03-01T11:44:37;102390.11;;;6.18;100.00
49645;BME280;36494;50.730;-1.932;2023-03-01T11:47:13;102386.75;;;6.26;100.00
49645;BME280;36494;50.730;-1.932;2023-03-01T11:49:45;102383.14;;;6.29;100.00
49645;BME280;36494;50.730;-1.932;2023-03-01T11:51:57;102383.58;;;6.30;100.00
49645;BME280;36494;50.730;-1.932;2023-03-01T11:54:29;102383.14;;;6.31;100.00
49645;BME280;36494;50.730;-1.932;2023-03-01T11:56:47;102378.05;;;6.33;100.00
49645;BME280;36494;50.730;-1.932;2023-03-01T11:59:26;102374.37;;;6.36;100.00
49645;BME280;36494;50.730;-1.932;2023-03-01T12:01:46;102370.31;;;6.39;100.00
49645;BME280;36494;50.730;-1.932;2023-03-01T12:04:16;102367.92;;;6.46;100.00
49645;BME280;36494;50.730;-1.932;2023-03-01T12:06:38;102359.74;;;6.46;100.00
49645;BME280;36494;50.730;-1.932;2023-03-01T12:09:01;102354.71;;;6.50;100.00
49645;BME280;36494;50.730;-1.932;2023-03-01T12:11:26;102348.82;;;6.53;100.00
49645;BME280;36494;50.730;-1.932;2023-03-01T12:13:54;102341.72;;;6.52;100.00
49645;BME280;36494;50.730;-1.932;2023-03-01T12:16:17;102338.26;;;6.53;100.00
49645;BME280;36494;50.730;-1.932;2023-03-01T12:18:45;102335.34;;;6.54;100.00
49645;BME280;36494;50.730;-1.932;2023-03-01T12:21:06;102332.20;;;6.55;100.00
49645;BME280;36494;50.730;-1.932;2023-03-01T12:23:44;102328.37;;;6.53;100.00
49645;BME280;36494;50.730;-1.932;2023-03-01T12:25:55;102327.36;;;6.53;100.00
49645;BME280;36494;50.730;-1.932;2023-03-01T12:28:24;102327.61;;;6.55;100.00
49645;BME280;36494;50.730;-1.932;2023-03-01T12:30:51;102324.00;;;6.51;100.00
49645;BME280;36494;50.730;-1.932;2023-03-01T12:33:17;102324.54;;;6.54;100.00